Time;durP1;ratioP1;P1;durP2;ratioP2;P2;SDS_P1;SDS_P2;PMS_P1;PMS_P2;Temp;Humidity;BMP_temperature;BMP_pressure;BME280_temperature;BME280_humidity;BME280_pressure;Samples;Min_cycle;Max_cycle;Signal;HPM_P1;HPM_P2
2020/12/21 00:00:07;;;;;;;35.20;17.80;;;;;;;4.35;78.19;101470.25;4996674;28;20039;-75
2020/12/21 00:02:32;;;;;;;40.83;17.88;;;;;;;4.41;78.89;101486.00;4996994;28;20049;-75
2020/12/21 00:04:57;;;;;;;42.90;19.17;;;;;;;4.24;79.07;101477.44;4979005;28;20042;-75
2020/12/21 00:07:23;;;;;;;44.80;20.27;;;;;;;4.35;78.92;101490.53;4996651;28;20480;-74
2020/12/21 00:09:48;;;;;;;41.65;19.40;;;;;;;4.08;79.38;101462.72;4996502;28;20492;-75
2020/12/21 00:12:13;;;;;;;40.65;19.45;;;;;;;4.18;79.40;101480.19;4963419;28;20113;-75
2020/12/21 00:14:39;;;;;;;39.72;19.52;;;;;;;4.04;79.40;101440.75;4996474;28;20500;-73
2020/12/21 00:17:04;;;;;;;42.03;19.10;;;;;;;4.30;78.37;101474.72;4996059;28;20042;-75
2020/12/21 00:19:30;;;;;;;42.13;19.13;;;;;;;4.24;79.00;101461.59;4979237;28;20034;-75
2020/12/21 00:21:55;;;;;;;43.38;20.45;;;;;;;4.18;78.37;101435.28;4978804;28;20518;-75
2020/12/21 00:24:21;;;;;;;40.22;18.90;;;;;;;4.36;78.63;101474.66;4962782;28;20074;-75
2020/12/21 00:26:47;;;;;;;39.33;18.42;;;;;;;4.06;78.74;101414.38;5001653;28;20381;-77
2020/12/21 00:29:13;;;;;;;39.92;18.20;;;;;;;4.45;78.31;101482.44;5002578;28;20058;-74
2020/12/21 00:31:39;;;;;;;41.70;18.58;;;;;;;4.42;78.56;101482.44;4997966;28;20040;-76
2020/12/21 00:34:05;;;;;;;43.63;19.73;;;;;;;4.39;78.81;101484.28;4978827;28;20034;-74
2020/12/21 00:36:32;;;;;;;45.50;18.75;;;;;;;4.41;78.87;101491.28;4996607;28;20081;-75
2020/12/21 00:38:57;;;;;;;40.47;18.58;;;;;;;4.42;78.89;101493.03;4995768;28;20034;-75
2020/12/21 00:41:24;;;;;;;42.83;20.80;;;;;;;4.26;79.47;101491.53;4996155;28;20044;-75
2020/12/21 00:43:50;;;;;;;43.08;19.48;;;;;;;4.07;79.75;101447.78;4978481;28;20031;-75
2020/12/21 00:46:24;;;;;;;43.40;20.30;;;;;;;4.35;79.22;101485.25;4995870;28;20522;-75
2020/12/21 00:48:50;;;;;;;44.67;20.20;;;;;;;4.36;79.51;101487.84;4978490;28;20042;-75
2020/12/21 00:51:16;;;;;;;44.78;20.08;;;;;;;4.32;79.76;101487.00;4995874;28;20033;-75
2020/12/21 00:53:43;;;;;;;46.95;22.40;;;;;;;4.19;80.76;101484.56;4978722;28;20034;-75
2020/12/21 00:56:09;;;;;;;50.63;21.00;;;;;;;4.17;80.41;101492.53;4995525;28;20062;-76
2020/12/21 00:58:36;;;;;;;49.08;21.90;;;;;;;3.91;80.82;101448.00;4974886;28;20055;-75
2020/12/21 01:01:08;;;;;;;51.97;22.83;;;;;;;4.20;80.82;101499.53;4976018;28;20035;-75
2020/12/21 01:03:34;;;;;;;49.25;22.20;;;;;;;4.16;81.12;101495.19;4976232;28;20081;-74
2020/12/21 01:05:59;;;;;;;50.05;22.27;;;;;;;4.23;80.73;101502.09;4975972;28;20038;-76
2020/12/21 01:08:24;;;;;;;53.35;22.25;;;;;;;4.30;80.82;101506.41;4974999;28;20085;-75
2020/12/21 01:10:50;;;;;;;51.95;21.85;;;;;;;4.35;80.40;101506.38;4974699;28;20031;-76
2020/12/21 01:13:15;;;;;;;51.20;22.85;;;;;;;4.27;80.63;101496.78;4976064;28;20035;-75
2020/12/21 01:15:41;;;;;;;53.50;23.73;;;;;;;4.21;81.11;101504.78;4976045;28;20401;-74
2020/12/21 01:18:07;;;;;;;51.38;21.90;;;;;;;4.27;81.06;101498.56;4974528;28;20042;-74
2020/12/21 01:20:32;;;;;;;53.83;22.08;;;;;;;3.96;80.87;101459.38;4975838;28;20571;-75
2020/12/21 01:22:58;;;;;;;55.58;23.50;;;;;;;3.88;81.21;101458.59;4974826;28;20062;-73
2020/12/21 01:25:23;;;;;;;48.80;21.45;;;;;;;4.22;81.30;101505.66;4975876;28;20062;-75
2020/12/21 01:27:48;;;;;;;51.70;22.48;;;;;;;4.27;81.26;101498.56;4975927;28;20472;-76
2020/12/21 01:30:14;;;;;;;51.83;23.00;;;;;;;4.19;81.13;101479.28;4975665;28;20057;-75
2020/12/21 01:32:39;;;;;;;52.83;23.05;;;;;;;4.31;81.23;101498.47;4974794;28;20069;-75
2020/12/21 01:35:05;;;;;;;49.38;22.20;;;;;;;4.37;81.17;101494.88;4974300;28;20070;-73
2020/12/21 01:37:31;;;;;;;51.35;22.95;;;;;;;4.11;81.08;101449.47;4975695;28;20115;-74
2020/12/21 01:39:56;;;;;;;51.33;22.83;;;;;;;4.23;81.03;101480.97;4975455;28;20031;-76
2020/12/21 01:42:22;;;;;;;53.92;23.65;;;;;;;4.28;81.22;101479.16;4957459;28;20081;-75
2020/12/21 01:44:48;;;;;;;50.55;23.65;;;;;;;4.23;81.74;101492.41;4974218;28;20035;-75
2020/12/21 01:47:17;;;;;;;55.10;24.17;;;;;;;4.21;82.24;101498.63;4957861;28;20114;-74
2020/12/21 01:49:44;;;;;;;52.38;23.25;;;;;;;4.35;81.33;101486.09;4974206;28;20492;-75
2020/12/21 01:52:11;;;;;;;54.95;23.15;;;;;;;4.30;81.35;101474.72;4974086;28;20061;-74
2020/12/21 01:54:36;;;;;;;53.45;24.10;;;;;;;4.34;81.56;101489.63;4974296;28;20046;-76
2020/12/21 01:57:02;;;;;;;56.45;24.70;;;;;;;4.21;82.04;101491.56;4975115;28;20031;-76
2020/12/21 01:59:28;;;;;;;52.33;23.95;;;;;;;4.37;81.52;101494.88;4977830;28;20369;-75
2020/12/21 02:01:55;;;;;;;56.80;25.05;;;;;;;4.31;81.90;101490.53;4994227;28;20395;-75
2020/12/21 02:04:21;;;;;;;57.33;23.98;;;;;;;4.28;81.87;101489.72;4995008;28;20031;-75
2020/12/21 02:06:47;;;;;;;61.75;24.42;;;;;;;4.24;81.71;101469.53;4994367;28;20031;-75
2020/12/21 02:09:13;;;;;;;53.30;23.05;;;;;;;4.20;82.47;101473.13;4994276;28;20038;-75
2020/12/21 02:11:42;;;;;;;52.08;23.10;;;;;;;4.18;81.85;101467.84;4976966;28;20032;-76
2020/12/21 02:14:09;;;;;;;55.90;23.58;;;;;;;4.20;82.25;101483.69;4994076;28;20538;-73
2020/12/21 02:16:35;;;;;;;53.63;22.92;;;;;;;4.23;82.57;101478.34;4994220;28;20468;-74
2020/12/21 02:19:01;;;;;;;59.00;24.23;;;;;;;4.21;82.21;101472.22;4994265;28;20034;-74
2020/12/21 02:21:26;;;;;;;58.20;23.70;;;;;;;4.16;82.30;101474.94;4994596;28;20045;-73
2020/12/21 02:23:52;;;;;;;54.58;23.70;;;;;;;4.13;82.64;101463.53;4994418;28;20522;-73
2020/12/21 02:26:17;;;;;;;54.85;23.77;;;;;;;3.98;82.05;101436.47;4993632;28;20041;-73
2020/12/21 02:28:43;;;;;;;58.30;24.73;;;;;;;4.25;82.05;101479.22;4994143;28;20053;-73
2020/12/21 02:31:08;;;;;;;52.72;23.88;;;;;;;3.89;82.06;101431.31;4993654;28;20157;-74
2020/12/21 02:33:34;;;;;;;54.78;24.80;;;;;;;4.06;82.64;101454.84;4994065;28;20383;-75
2020/12/21 02:35:59;;;;;;;57.83;24.85;;;;;;;4.09;82.66;101462.72;4976538;28;20030;-74
2020/12/21 02:38:25;;;;;;;53.80;23.85;;;;;;;4.27;81.83;101469.50;4993918;28;20109;-75
2020/12/21 02:40:50;;;;;;;52.22;21.52;;;;;;;3.99;81.93;101432.94;4960526;28;20030;-74
2020/12/21 02:43:16;;;;;;;54.53;22.73;;;;;;;4.01;82.27;101431.13;4993603;28;20119;-74
2020/12/21 02:45:41;;;;;;;50.92;23.42;;;;;;;3.81;81.74;101405.91;4993752;28;20066;-73
2020/12/21 02:48:07;;;;;;;49.70;21.88;;;;;;;4.15;82.58;101473.19;4993262;28;20092;-76
2020/12/21 02:50:33;;;;;;;51.35;23.15;;;;;;;4.14;82.25;101454.69;4960474;28;20038;-74
2020/12/21 02:52:58;;;;;;;54.40;22.92;;;;;;;4.14;82.27;101465.25;4993151;28;20034;-76
2020/12/21 02:55:24;;;;;;;48.78;22.17;;;;;;;4.19;82.25;101463.44;4960581;28;20142;-76
2020/12/21 02:57:49;;;;;;;50.13;22.80;;;;;;;4.14;82.51;101473.19;4944361;28;20058;-76
2020/12/21 03:00:15;;;;;;;59.10;22.80;;;;;;;4.25;82.17;101468.66;4993608;28;20370;-75
2020/12/21 03:02:40;;;;;;;47.97;21.33;;;;;;;4.24;81.80;101470.38;4993579;28;20395;-75
2020/12/21 03:05:07;;;;;;;46.28;20.85;;;;;;;3.92;81.91;101396.94;4976079;28;20030;-75
2020/12/21 03:07:32;;;;;;;48.28;20.77;;;;;;;4.24;81.96;101456.31;4993733;28;20060;-77
2020/12/21 03:09:58;;;;;;;46.55;20.88;;;;;;;4.21;81.91;101464.28;4959889;28;20129;-76
2020/12/21 03:12:23;;;;;;;49.67;21.40;;;;;;;4.13;82.10;101447.69;4976157;28;20042;-75
2020/12/21 03:14:48;;;;;;;49.10;21.90;;;;;;;4.24;81.77;101461.59;4993458;28;20046;-75
2020/12/21 03:17:14;;;;;;;53.05;21.90;;;;;;;3.91;82.08;101405.75;4943676;28;20041;-74
2020/12/21 03:19:39;;;;;;;51.20;22.10;;;;;;;4.12;82.37;101456.50;4976383;28;20038;-75
2020/12/21 03:22:04;;;;;;;46.72;21.23;;;;;;;4.09;82.24;101457.44;4993253;28;20038;-74
2020/12/21 03:24:30;;;;;;;51.45;20.58;;;;;;;4.15;82.04;101453.81;4976278;28;20084;-74
2020/12/21 03:26:55;;;;;;;44.20;19.85;;;;;;;4.10;81.91;101442.47;4993448;28;20062;-74
2020/12/21 03:29:20;;;;;;;48.33;20.50;;;;;;;4.20;81.91;101454.63;4993063;28;20064;-75
2020/12/21 03:31:46;;;;;;;44.28;19.27;;;;;;;3.95;82.18;101425.06;4993337;28;20037;-75
2020/12/21 03:34:14;;;;;;;48.20;20.98;;;;;;;3.91;82.07;101418.09;4992927;28;20460;-75
2020/12/21 03:36:40;;;;;;;49.20;21.60;;;;;;;4.19;82.22;101464.31;4993378;28;20034;-74
2020/12/21 03:39:06;;;;;;;47.03;21.02;;;;;;;4.15;82.12;101459.09;4976029;28;20083;-75
2020/12/21 03:41:32;;;;;;;49.47;21.10;;;;;;;3.92;82.07;101407.50;4993397;28;20121;-75
2020/12/21 03:43:58;;;;;;;45.80;19.25;;;;;;;3.99;81.94;101403.88;4969493;28;20030;-77
2020/12/21 03:46:23;;;;;;;45.33;20.50;;;;;;;4.13;82.86;101458.25;4977404;28;20042;-74
2020/12/21 03:48:48;;;;;;;48.72;21.13;;;;;;;4.21;82.28;101444.03;4993646;28;20034;-74
2020/12/21 03:51:14;;;;;;;48.08;21.05;;;;;;;4.22;82.28;101458.09;4959531;28;20064;-76
2020/12/21 03:53:39;;;;;;;47.22;20.70;;;;;;;4.23;82.76;101455.44;4960145;28;20043;-75
2020/12/21 03:56:04;;;;;;;46.85;20.08;;;;;;;4.10;82.20;101427.47;4975740;28;20039;-76
2020/12/21 03:58:30;;;;;;;50.90;21.67;;;;;;;4.12;82.54;101435.38;4975482;28;20057;-76
2020/12/21 04:00:55;;;;;;;46.05;21.50;;;;;;;4.14;82.87;101455.56;4975961;28;20038;-75
2020/12/21 04:03:20;;;;;;;48.78;21.35;;;;;;;4.16;82.94;101452.94;4975556;28;20429;-74
2020/12/21 04:05:46;;;;;;;46.08;21.40;;;;;;;4.14;83.19;101446.78;4994709;28;20486;-75
2020/12/21 04:08:12;;;;;;;49.05;22.17;;;;;;;4.12;83.11;101441.53;4978926;28;20040;-74
2020/12/21 04:10:38;;;;;;;48.38;21.20;;;;;;;3.86;82.86;101389.13;4996856;28;20034;-75
2020/12/21 04:13:03;;;;;;;46.45;20.90;;;;;;;4.15;82.86;101445.88;4996458;28;20038;-75
2020/12/21 04:15:29;;;;;;;49.17;21.33;;;;;;;4.23;82.66;101442.22;4996587;28;20038;-73
2020/12/21 04:17:54;;;;;;;46.10;21.70;;;;;;;4.09;82.73;101414.31;4996645;28;20125;-75
2020/12/21 04:20:19;;;;;;;51.90;21.98;;;;;;;3.92;82.80;101402.22;4996338;28;20278;-76
2020/12/21 04:22:45;;;;;;;49.05;22.27;;;;;;;3.79;82.95;101384.81;4996818;28;20521;-74
2020/12/21 04:25:10;;;;;;;48.25;22.20;;;;;;;4.17;82.79;101441.47;4996114;28;20121;-76
2020/12/21 04:27:36;;;;;;;50.20;21.80;;;;;;;4.14;82.73;101446.78;4996686;28;20419;-77
2020/12/21 04:30:01;;;;;;;46.83;22.10;;;;;;;3.92;82.51;101404.84;4996263;28;20121;-77
2020/12/21 04:32:27;;;;;;;49.60;22.95;;;;;;;3.84;82.75;101388.25;4996488;28;20027;-76
2020/12/21 04:34:52;;;;;;;51.92;23.08;;;;;;;4.06;83.12;101446.06;4979162;28;20407;-78
2020/12/21 04:37:17;;;;;;;48.35;22.30;;;;;;;3.96;82.91;101430.34;4978598;28;20034;-78
2020/12/21 04:39:43;;;;;;;53.28;22.95;;;;;;;3.73;83.27;101416.56;4978944;28;20034;-78
2020/12/21 04:42:08;;;;;;;56.35;24.85;;;;;;;3.65;83.47;101403.47;4996045;28;20034;-77
2020/12/21 04:44:34;;;;;;;48.97;21.58;;;;;;;4.06;83.29;101446.06;4996019;28;20490;-77
2020/12/21 04:47:00;;;;;;;48.40;21.80;;;;;;;4.16;82.61;101452.94;4978498;28;20031;-77
2020/12/21 04:49:26;;;;;;;50.25;22.30;;;;;;;3.96;82.03;101406.59;4978233;28;20464;-74
2020/12/21 04:51:51;;;;;;;49.58;22.75;;;;;;;3.89;82.22;101397.00;4962638;28;20069;-77
2020/12/21 04:54:18;;;;;;;48.03;21.42;;;;;;;4.17;82.31;101449.41;4978487;28;20384;-76
2020/12/21 04:56:44;;;;;;;52.25;21.40;;;;;;;4.14;82.25;101438.84;4995854;28;20034;-76
2020/12/21 04:59:11;;;;;;;51.50;22.35;;;;;;;4.15;82.48;101453.81;4961730;28;20393;-75
2020/12/21 05:01:36;;;;;;;49.05;22.33;;;;;;;4.15;82.70;101451.16;4995734;28;20503;-76
2020/12/21 05:04:02;;;;;;;54.80;23.85;;;;;;;4.12;82.48;101456.50;4995917;28;20038;-76
2020/12/21 05:06:27;;;;;;;49.92;22.30;;;;;;;4.18;82.11;101454.66;4995239;28;20038;-76
2020/12/21 05:09:09;;;;;;;53.17;22.83;;;;;;;3.89;81.55;101385.56;4995841;28;20042;-76
2020/12/21 05:11:39;;;;;;;45.58;21.65;;;;;;;4.23;82.29;101451.94;4978257;28;20034;-75
2020/12/21 05:14:09;;;;;;;47.38;21.95;;;;;;;4.16;81.96;101442.38;4962253;28;20357;-78
2020/12/21 05:16:35;;;;;;;47.28;23.27;;;;;;;4.24;82.54;101466.88;4995435;28;20476;-74
2020/12/21 05:19:01;;;;;;;51.33;21.80;;;;;;;4.28;81.84;101460.69;4977986;28;20125;-76
2020/12/21 05:21:30;;;;;;;49.53;21.95;;;;;;;4.24;82.34;101456.31;4977936;28;20058;-73
2020/12/21 05:23:58;;;;;;;47.95;21.88;;;;;;;4.24;82.14;101456.31;4995417;28;20038;-74
2020/12/21 05:26:32;;;;;;;51.15;22.85;;;;;;;4.17;82.06;101444.13;4977655;28;20034;-74
2020/12/21 05:28:59;;;;;;;51.58;22.80;;;;;;;4.23;82.17;101466.00;4995122;28;20101;-73
2020/12/21 05:31:25;;;;;;;51.25;23.55;;;;;;;4.15;82.73;101467.00;4977448;28;20034;-73
2020/12/21 05:33:51;;;;;;;51.90;21.70;;;;;;;4.08;82.55;101449.53;4995369;28;20039;-74
2020/12/21 05:36:22;;;;;;;50.00;22.70;;;;;;;4.19;82.45;101474.88;4977790;28;20037;-75
2020/12/21 05:38:59;;;;;;;49.42;21.60;;;;;;;4.22;82.23;101476.59;4978004;28;20034;-74
2020/12/21 05:41:25;;;;;;;52.20;23.08;;;;;;;3.96;82.36;101429.47;4994671;28;20383;-75
2020/12/21 05:43:52;;;;;;;52.10;23.92;;;;;;;4.23;82.06;101470.41;4994975;28;20038;-75
2020/12/21 05:46:24;;;;;;;53.67;21.85;;;;;;;4.19;82.23;101471.38;4994488;28;20030;-74
2020/12/21 05:48:54;;;;;;;49.67;23.17;;;;;;;4.12;82.70;101473.22;4995209;28;20034;-75
2020/12/21 05:51:24;;;;;;;51.42;21.77;;;;;;;4.15;82.43;101482.84;4994769;28;20034;-75
2020/12/21 05:53:52;;;;;;;50.90;22.02;;;;;;;4.24;82.17;101483.59;4995093;28;20026;-74
2020/12/21 05:56:19;;;;;;;50.22;22.00;;;;;;;4.25;81.65;101471.28;4995015;28;20037;-75
2020/12/21 05:58:45;;;;;;;52.20;22.67;;;;;;;4.18;81.73;101456.44;4994531;28;20522;-75
2020/12/21 06:01:12;;;;;;;50.30;22.13;;;;;;;4.14;82.00;101475.81;4994359;28;20034;-76
2020/12/21 06:03:42;;;;;;;58.85;22.98;;;;;;;4.20;81.99;101481.91;4994513;28;20037;-75
2020/12/21 06:06:12;;;;;;;54.53;23.63;;;;;;;4.16;82.38;101479.34;4994363;28;20055;-76
2020/12/21 06:08:39;;;;;;;51.67;22.20;;;;;;;4.21;81.62;101478.38;4994805;28;20388;-75
2020/12/21 06:11:29;;;;;;;50.75;22.23;;;;;;;4.15;81.58;101461.72;4994336;28;20526;-78
2020/12/21 06:14:03;;;;;;;49.05;21.75;;;;;;;4.28;81.56;101479.16;4993515;28;20117;-78
2020/12/21 06:16:30;;;;;;;48.28;21.13;;;;;;;4.28;81.52;101480.03;4976678;28;20149;-78
2020/12/21 06:19:00;;;;;;;49.33;21.67;;;;;;;4.26;81.52;101470.41;4994656;28;20045;-78
2020/12/21 06:21:34;;;;;;;55.22;23.38;;;;;;;4.34;81.26;101481.69;4976579;28;20026;-77
2020/12/21 06:24:01;;;;;;;49.67;22.65;;;;;;;4.27;81.34;101475.66;4994309;28;20423;-78
2020/12/21 06:26:37;;;;;;;49.53;21.63;;;;;;;4.24;81.45;101472.16;4994125;28;20027;-79
2020/12/21 06:29:13;;;;;;;50.00;21.27;;;;;;;4.12;81.32;101443.31;4976493;28;20060;-78
2020/12/21 06:31:40;;;;;;;50.60;22.15;;;;;;;4.42;81.34;101493.03;4977269;28;20120;-76
2020/12/21 06:34:07;;;;;;;49.20;22.33;;;;;;;4.35;81.34;101496.69;4994185;28;20066;-78
2020/12/21 06:36:33;;;;;;;50.90;22.75;;;;;;;4.27;81.13;101477.41;4960322;28;20066;-78
2020/12/21 06:38:58;;;;;;;55.65;22.95;;;;;;;4.42;80.67;101492.16;4993999;28;20069;-77
2020/12/21 06:41:26;;;;;;;56.83;22.15;;;;;;;4.30;81.48;101488.81;4993931;28;20121;-76
2020/12/21 06:43:57;;;;;;;50.25;22.35;;;;;;;4.08;81.29;101462.72;4994109;28;20045;-74
2020/12/21 06:46:23;;;;;;;57.90;23.92;;;;;;;4.20;82.06;101487.19;4993789;28;20038;-78
2020/12/21 06:49:03;;;;;;;48.72;22.02;;;;;;;4.33;81.16;101487.88;4993817;28;20498;-79
2020/12/21 06:51:28;;;;;;;55.40;22.92;;;;;;;4.30;81.60;101495.84;4976146;28;20081;-78
2020/12/21 06:53:58;;;;;;;53.58;23.08;;;;;;;4.18;81.55;101485.47;4994019;28;20042;-81
2020/12/21 06:56:26;;;;;;;51.47;20.55;;;;;;;4.32;81.09;101496.69;4976290;28;20070;-79
2020/12/21 06:58:52;;;;;;;51.65;21.42;;;;;;;4.31;80.67;101497.59;4983261;28;20058;-80
2020/12/21 07:01:18;;;;;;;50.50;21.52;;;;;;;4.30;81.20;101509.94;4980139;28;20532;-76
2020/12/21 07:03:45;;;;;;;48.50;20.88;;;;;;;4.39;80.59;101516.84;4975023;28;20105;-75
2020/12/21 07:06:11;;;;;;;53.38;21.45;;;;;;;4.36;81.13;101513.41;4973490;28;20063;-75
2020/12/21 07:08:36;;;;;;;54.17;23.20;;;;;;;4.23;81.04;101517.97;4974469;28;20030;-75
2020/12/21 07:11:01;;;;;;;53.05;21.85;;;;;;;4.06;81.89;101514.69;4973283;28;20031;-76
2020/12/21 07:13:27;;;;;;;48.95;22.17;;;;;;;3.99;80.94;101467.25;4972811;28;20026;-78
2020/12/21 07:15:56;;;;;;;48.28;21.65;;;;;;;4.27;81.07;101517.03;4974310;28;20050;-76
2020/12/21 07:18:22;;;;;;;49.95;21.73;;;;;;;4.05;81.07;101486.53;4972967;28;20093;-77
2020/12/21 07:20:47;;;;;;;47.88;21.17;;;;;;;4.08;80.97;101502.34;4974082;28;20496;-77
2020/12/21 07:23:12;;;;;;;50.42;22.00;;;;;;;4.33;80.66;101532.78;4974602;28;20454;-78
2020/12/21 07:25:48;;;;;;;51.40;21.55;;;;;;;4.32;80.53;101531.03;4972427;28;20476;-78
2020/12/21 07:28:24;;;;;;;48.75;21.33;;;;;;;4.39;80.52;101529.19;4974223;28;20034;-75
2020/12/21 07:30:50;;;;;;;49.40;21.67;;;;;;;4.33;80.76;101527.50;4972832;28;20393;-77
2020/12/21 07:33:17;;;;;;;49.33;21.73;;;;;;;4.26;81.41;101525.84;4973877;28;20042;-77
2020/12/21 07:35:42;;;;;;;48.60;21.42;;;;;;;4.34;80.59;101525.72;4973787;28;20445;-77
2020/12/21 07:38:12;;;;;;;46.92;20.38;;;;;;;4.33;80.47;101503.72;4973893;28;20066;-78
2020/12/21 07:40:43;;;;;;;50.35;21.17;;;;;;;4.22;80.30;101487.16;4973622;28;20473;-78
2020/12/21 07:43:15;;;;;;;48.78;21.35;;;;;;;4.48;79.61;101529.94;4976680;28;20039;-77
2020/12/21 07:45:41;;;;;;;48.00;21.63;;;;;;;4.45;79.83;101522.06;4978022;28;20384;-78
2020/12/21 07:48:07;;;;;;;48.00;20.20;;;;;;;4.25;79.78;101503.00;4976579;28;20046;-78
2020/12/21 07:50:36;;;;;;;50.90;20.52;;;;;;;4.48;80.17;101535.22;4977350;28;20039;-78
2020/12/21 07:53:02;;;;;;;48.70;22.15;;;;;;;4.32;80.40;101520.47;4977652;28;20034;-77
2020/12/21 07:55:28;;;;;;;53.90;21.73;;;;;;;4.30;80.70;101519.63;4977280;28;20046;-78
2020/12/21 07:57:53;;;;;;;49.40;21.17;;;;;;;4.34;79.74;101531.88;4944039;28;20055;-78
2020/12/21 08:00:19;;;;;;;48.50;20.20;;;;;;;4.35;80.97;101546.88;4976228;28;20126;-78
2020/12/21 08:02:49;;;;;;;45.17;19.98;;;;;;;4.25;79.95;101500.34;4977459;28;20038;-76
2020/12/21 08:05:20;;;;;;;48.17;21.38;;;;;;;4.25;80.80;101521.47;4976164;28;20062;-76
2020/12/21 08:07:46;;;;;;;48.92;20.45;;;;;;;4.40;80.79;101531.81;4960023;28;20042;-75
2020/12/21 08:10:12;;;;;;;45.67;20.55;;;;;;;4.36;80.34;101523.97;4976037;28;20045;-75
2020/12/21 08:12:38;;;;;;;45.80;18.17;;;;;;;4.52;79.58;101542.19;4975709;28;20031;-74
2020/12/21 08:15:05;;;;;;;44.55;18.83;;;;;;;4.64;78.96;101537.63;4959617;28;20035;-75
2020/12/21 08:17:31;;;;;;;42.47;18.25;;;;;;;4.57;78.43;101524.50;4976939;28;20043;-75
2020/12/21 08:20:01;;;;;;;43.10;18.05;;;;;;;4.72;77.79;101539.25;4959960;28;20146;-74
2020/12/21 08:22:30;;;;;;;43.58;18.38;;;;;;;4.65;78.55;101542.03;4975549;28;20177;-75
2020/12/21 08:25:09;;;;;;;41.20;18.10;;;;;;;4.69;77.93;101544.59;4975621;28;20093;-74
2020/12/21 08:27:50;;;;;;;44.30;19.23;;;;;;;4.70;78.13;101534.88;4976617;28;20034;-77
2020/12/21 08:30:19;;;;;;;42.03;18.38;;;;;;;4.76;78.29;101540.09;4977052;28;20104;-74
2020/12/21 08:32:45;;;;;;;42.22;18.02;;;;;;;4.55;78.14;101526.31;4976824;28;20035;-76
2020/12/21 08:35:11;;;;;;;42.10;17.92;;;;;;;4.71;77.86;101539.28;4975594;28;20043;-76
2020/12/21 08:37:37;;;;;;;40.17;17.27;;;;;;;4.73;77.68;101541.00;4975097;28;20093;-75
2020/12/21 08:40:13;;;;;;;42.50;16.95;;;;;;;4.70;77.65;101545.44;4976551;28;20070;-74
2020/12/21 08:42:38;;;;;;;40.78;17.48;;;;;;;4.48;76.95;101511.44;4975312;28;20035;-75
2020/12/21 08:45:04;;;;;;;37.75;17.27;;;;;;;4.76;76.85;101540.09;4976733;28;20035;-75
2020/12/21 08:47:30;;;;;;;38.03;17.13;;;;;;;4.68;76.99;101541.97;4976383;28;20065;-75
2020/12/21 08:49:55;;;;;;;37.13;16.30;;;;;;;4.58;76.97;101523.59;4976642;28;20043;-75
2020/12/21 08:52:20;;;;;;;38.42;17.30;;;;;;;4.60;77.24;101527.09;4975747;28;20110;-77
2020/12/21 08:54:46;;;;;;;34.20;15.02;;;;;;;4.65;76.09;101505.03;4958708;28;20109;-78
2020/12/21 08:57:11;;;;;;;38.83;17.30;;;;;;;4.80;76.70;101533.84;4977984;28;20054;-75
2020/12/21 08:59:37;;;;;;;39.47;16.95;;;;;;;4.85;75.82;101538.16;4970298;28;20039;-81
2020/12/21 09:02:03;;;;;;;41.42;16.98;;;;;;;4.91;75.71;101542.47;4962355;28;20129;-78
2020/12/21 09:04:28;;;;;;;35.60;17.40;;;;;;;4.85;75.72;101537.28;4995371;28;20125;-78
2020/12/21 09:06:54;;;;;;;34.95;16.90;;;;;;;4.88;75.66;101534.59;4976985;28;20035;-77
2020/12/21 09:09:19;;;;;;;35.25;15.98;;;;;;;4.82;75.77;101530.25;4995110;28;20034;-76
2020/12/21 09:11:44;;;;;;;35.38;16.08;;;;;;;4.81;75.67;101507.38;4995220;28;20038;-77
2020/12/21 09:14:10;;;;;;;36.53;16.38;;;;;;;4.76;76.24;101524.22;4978235;28;20037;-77
2020/12/21 09:16:38;;;;;;;35.63;16.67;;;;;;;4.75;76.30;101523.34;4995041;28;20030;-77
2020/12/21 09:19:03;;;;;;;36.58;17.30;;;;;;;4.82;76.40;101524.09;4995098;28;20085;-76
2020/12/21 09:21:30;;;;;;;39.08;17.40;;;;;;;4.82;76.22;101518.81;4995636;28;20034;-79
2020/12/21 09:24:00;;;;;;;39.42;16.75;;;;;;;4.74;75.77;101505.75;4998584;28;20038;-75
2020/12/21 09:26:26;;;;;;;37.20;16.05;;;;;;;4.96;75.44;101515.97;4995018;28;20054;-79
2020/12/21 09:28:53;;;;;;;35.83;16.27;;;;;;;4.93;75.82;101510.75;4975686;28;20068;-78
2020/12/21 09:31:20;;;;;;;34.45;16.23;;;;;;;4.92;75.11;101493.97;4977473;28;20636;-77
2020/12/21 09:33:47;;;;;;;35.72;15.80;;;;;;;5.11;75.44;101521.84;4977388;28;20400;-78
2020/12/21 09:36:13;;;;;;;34.38;16.52;;;;;;;5.10;75.28;101519.22;4994545;28;20057;-78
2020/12/21 09:38:39;;;;;;;37.55;16.17;;;;;;;4.98;75.32;101501.81;4977536;28;20034;-76
2020/12/21 09:41:05;;;;;;;34.88;15.75;;;;;;;4.97;75.41;101515.94;4977438;28;20118;-76
2020/12/21 09:43:31;;;;;;;37.75;16.63;;;;;;;4.93;74.50;101511.59;4994936;28;20089;-76
2020/12/21 09:45:56;;;;;;;32.33;15.63;;;;;;;5.01;74.46;101493.81;4977034;28;20507;-76
2020/12/21 09:48:22;;;;;;;33.67;14.38;;;;;;;4.88;73.54;101450.00;4977314;28;20146;-78
2020/12/21 09:50:48;;;;;;;37.80;15.82;;;;;;;5.13;74.17;101498.91;4994608;28;20054;-76
2020/12/21 09:53:13;;;;;;;34.65;16.13;;;;;;;5.13;73.75;101488.31;4977102;28;20578;-76
2020/12/21 09:55:38;;;;;;;39.28;17.15;;;;;;;5.05;74.31;101487.59;4960647;28;20496;-78
2020/12/21 09:58:05;;;;;;;36.17;16.83;;;;;;;5.00;74.65;101476.19;4975382;28;20058;-82
2020/12/21 10:00:30;;;;;;;31.85;15.57;;;;;;;5.22;73.67;101481.13;4976687;28;20051;-81
2020/12/21 10:02:56;;;;;;;33.42;15.50;;;;;;;5.18;74.83;101481.16;4975943;28;20049;-78
2020/12/21 10:05:21;;;;;;;34.58;16.65;;;;;;;5.35;73.91;101487.91;4975902;28;20037;-77
2020/12/21 10:07:47;;;;;;;35.67;16.58;;;;;;;5.32;73.50;101486.22;4993768;28;20197;-76
2020/12/21 10:10:12;;;;;;;32.22;15.30;;;;;;;5.15;73.80;101481.22;4994138;28;20038;-75
2020/12/21 10:12:37;;;;;;;38.50;16.38;;;;;;;5.24;74.17;101484.59;4961026;28;20553;-77
2020/12/21 10:15:03;;;;;;;34.20;16.33;;;;;;;5.38;73.54;101483.44;4980258;28;20604;-76
2020/12/21 10:17:29;;;;;;;35.88;17.00;;;;;;;5.11;73.77;101437.19;4995127;28;20388;-75
2020/12/21 10:19:54;;;;;;;36.50;16.45;;;;;;;5.26;73.89;101466.94;4975026;28;20049;-76
2020/12/21 10:22:19;;;;;;;35.20;16.52;;;;;;;5.28;73.36;101457.19;4976008;28;20041;-78
2020/12/21 10:24:45;;;;;;;38.65;16.70;;;;;;;5.34;73.67;101450.00;4960472;28;20038;-79
2020/12/21 10:27:10;;;;;;;35.20;16.25;;;;;;;5.59;72.63;101471.53;4998955;28;20033;-76
2020/12/21 10:29:36;;;;;;;34.92;15.27;;;;;;;5.62;72.37;101465.34;4975622;28;20117;-78
2020/12/21 10:32:01;;;;;;;29.88;14.05;;;;;;;5.43;71.60;101448.97;4992966;28;20038;-75
2020/12/21 10:34:27;;;;;;;34.10;16.08;;;;;;;5.54;72.45;101465.50;4975529;28;20526;-77
2020/12/21 10:36:52;;;;;;;29.90;13.90;;;;;;;5.50;71.94;101455.88;4975256;28;20042;-80
2020/12/21 10:39:19;;;;;;;33.00;15.40;;;;;;;5.05;72.85;101426.75;4993258;28;20034;-76
2020/12/21 10:41:45;;;;;;;33.00;15.65;;;;;;;5.32;73.10;101458.88;4993082;28;20064;-76
2020/12/21 10:44:11;;;;;;;39.65;16.63;;;;;;;5.42;72.85;101457.81;4992974;28;20054;-76
2020/12/21 10:46:36;;;;;;;35.70;16.05;;;;;;;5.13;72.83;101429.28;4975008;28;20045;-78
2020/12/21 10:49:02;;;;;;;30.88;14.85;;;;;;;5.32;72.74;101454.47;4959286;28;20049;-73
2020/12/21 10:51:32;;;;;;;33.63;15.88;;;;;;;5.27;72.52;101434.28;4959335;28;20034;-73
2020/12/21 10:53:59;;;;;;;34.50;16.33;;;;;;;5.16;72.66;101418.63;4991420;28;20037;-72
2020/12/21 10:56:25;;;;;;;34.05;15.43;;;;;;;5.36;72.96;101447.34;4975407;28;20128;-76
2020/12/21 10:58:51;;;;;;;31.15;15.40;;;;;;;5.33;73.23;101442.09;4992537;28;20126;-75
2020/12/21 11:01:17;;;;;;;32.30;15.82;;;;;;;5.28;73.16;101425.44;4756982;28;6359569;-70
2020/12/21 11:03:44;;;;;;;34.80;16.60;;;;;;;5.29;73.35;101430.69;4976327;28;20080;-70
2020/12/21 11:06:10;;;;;;;37.78;15.82;;;;;;;5.19;73.38;101410.63;4976238;28;20034;-70
2020/12/21 11:08:36;;;;;;;36.85;15.82;;;;;;;5.27;72.92;101426.34;4960141;28;20042;-71
2020/12/21 11:11:02;;;;;;;33.75;16.27;;;;;;;5.37;73.57;101430.53;4976254;28;20049;-71
2020/12/21 11:13:28;;;;;;;34.38;15.65;;;;;;;5.24;72.61;101429.06;4976541;28;20499;-70